Big Bear Station Historical Data
Daily Summary for November 15, 2017 Units:  English    Metric   Both
« Previous Day
Next Day »
Daily Weekly Monthly Yearly Custom
  High: Low: Average:
Temperature: 62.1 °F 37.2 °F 49.4 °F
Dew Point: 33.9 °F 18.3 °F 29.2 °F
Humidity: 81 % 30 % 48 %
Wind Speed: 4.7 mph 0.0 mph 1 mph
Wind Gust: -999.0 mph - -
Wind:- - WSW
Pressure: 30.23 in 30.18 in -
Precipitation: 0.00 in    
Historical Graphs
 
 
Tabular Data for November 15, 2017
Time Temperature Dew Point Pressure Wind Wind Speed Wind Gust Humidity Rainfall Rate (Hourly)
06:06 37.2 °F 25.8 °F 30.20 in Calm   -999.0 mph 63 % 0 in
06:22 37.8 °F 23.9 °F 30.20 in Calm   -999.0 mph 57 % 0 in
06:37 37.8 °F 18.3 °F 30.20 in South 1.7 mph -999.0 mph 45 % 0 in
06:52 37.6 °F 23.7 °F 30.21 in Calm   -999.0 mph 57 % 0 in
07:07 37.9 °F 26.4 °F 30.21 in Calm   -999.0 mph 63 % 0 in
07:22 39.2 °F 22.1 °F 30.21 in SSE 1.7 mph -999.0 mph 50 % 0 in
07:38 41.9 °F 21.0 °F 30.22 in Calm   -999.0 mph 43 % 0 in
07:53 43.9 °F 22.3 °F 30.22 in Calm   -999.0 mph 42 % 0 in
08:08 46.2 °F 23.2 °F 30.22 in Calm   -999.0 mph 40 % 0 in
08:23 49.1 °F 24.6 °F 30.22 in Calm   -999.0 mph 38 % 0 in
08:38 51.8 °F 28.2 °F 30.23 in Calm   -999.0 mph 40 % 0 in
08:54 53.8 °F 31.2 °F 30.22 in Calm   -999.0 mph 42 % 0 in
09:09 55.4 °F 31.5 °F 30.22 in Calm   -999.0 mph 40 % 0 in
09:24 56.5 °F 32.5 °F 30.23 in Calm   -999.0 mph 40 % 0 in
09:40 58.5 °F 32.3 °F 30.22 in NW 3.2 mph -999.0 mph 37 % 0 in
09:55 58.8 °F 32.6 °F 30.23 in SW 1.7 mph -999.0 mph 37 % 0 in
10:10 59.4 °F 29.5 °F 30.23 in WNW 4.2 mph -999.0 mph 32 % 0 in
10:25 59.7 °F 29.8 °F 30.23 in NNW 1.1 mph -999.0 mph 32 % 0 in
10:41 59.5 °F 31.1 °F 30.23 in South 3.2 mph -999.0 mph 34 % 0 in
11:12 61.0 °F 30.1 °F 30.21 in WNW 1.1 mph -999.0 mph 31 % 0 in
11:42 61.0 °F 31.7 °F 30.21 in NW 3.7 mph -999.0 mph 33 % 0 in
11:57 61.2 °F 31.1 °F 30.20 in NW 4.2 mph -999.0 mph 32 % 0 in
12:13 62.1 °F 31.1 °F 30.20 in NW 4.2 mph -999.0 mph 31 % 0 in
12:28 61.7 °F 30.7 °F 30.19 in Calm   -999.0 mph 31 % 0 in
12:43 61.9 °F 30.1 °F 30.19 in Calm   -999.0 mph 30 % 0 in
12:58 60.4 °F 31.9 °F 30.19 in NW 3.7 mph -999.0 mph 34 % 0 in
13:13 59.5 °F 32.5 °F 30.19 in NW 2.7 mph -999.0 mph 36 % 0 in
13:29 59.4 °F 32.4 °F 30.19 in WNW 1.7 mph -999.0 mph 36 % 0 in
13:44 60.1 °F 30.9 °F 30.18 in North 4.7 mph -999.0 mph 33 % 0 in
13:59 59.4 °F 31.0 °F 30.18 in NW 4.2 mph -999.0 mph 34 % 0 in
14:15 59.5 °F 31.1 °F 30.19 in NNW 4.7 mph -999.0 mph 34 % 0 in
14:30 58.8 °F 30.5 °F 30.19 in South 2.7 mph -999.0 mph 34 % 0 in
14:45 58.3 °F 30.0 °F 30.19 in SSW 2.2 mph -999.0 mph 34 % 0 in
15:01 57.9 °F 29.7 °F 30.18 in SSW 2.7 mph -999.0 mph 34 % 0 in
15:16 57.6 °F 29.4 °F 30.19 in Calm   -999.0 mph 34 % 0 in
15:31 56.8 °F 29.4 °F 30.19 in WSW 2.2 mph -999.0 mph 35 % 0 in
15:46 56.1 °F 29.5 °F 30.19 in NE 2.7 mph -999.0 mph 36 % 0 in
16:01 55.2 °F 29.4 °F 30.19 in Calm   -999.0 mph 37 % 0 in
16:17 54.0 °F 30.2 °F 30.19 in Calm   -999.0 mph 40 % 0 in
16:32 52.9 °F 29.8 °F 30.19 in Calm   -999.0 mph 41 % 0 in
16:47 51.6 °F 28.7 °F 30.19 in Calm   -999.0 mph 41 % 0 in
17:02 50.2 °F 28.0 °F 30.19 in Calm   -999.0 mph 42 % 0 in
17:17 49.6 °F 26.9 °F 30.19 in SSE 1.7 mph -999.0 mph 41 % 0 in
17:33 48.6 °F 27.1 °F 30.20 in Calm   -999.0 mph 43 % 0 in
17:48 47.7 °F 28.4 °F 30.20 in Calm   -999.0 mph 47 % 0 in
18:03 47.7 °F 28.4 °F 30.21 in Calm   -999.0 mph 47 % 0 in
18:18 46.4 °F 27.8 °F 30.21 in Calm   -999.0 mph 48 % 0 in
18:34 45.5 °F 27.9 °F 30.21 in Calm   -999.0 mph 50 % 0 in
18:49 44.6 °F 27.1 °F 30.21 in Calm   -999.0 mph 50 % 0 in
19:04 43.9 °F 27.9 °F 30.21 in Calm   -999.0 mph 53 % 0 in
19:19 43.2 °F 28.1 °F 30.21 in Calm   -999.0 mph 55 % 0 in
19:34 42.6 °F 28.4 °F 30.21 in Calm   -999.0 mph 57 % 0 in
19:50 42.1 °F 28.8 °F 30.21 in SSE 1.1 mph -999.0 mph 59 % 0 in
20:05 41.5 °F 28.6 °F 30.21 in Calm   -999.0 mph 60 % 0 in
20:20 41.2 °F 29.6 °F 30.21 in Calm   -999.0 mph 63 % 0 in
20:35 40.6 °F 29.0 °F 30.20 in Calm   -999.0 mph 63 % 0 in
20:50 40.6 °F 30.1 °F 30.21 in Calm   -999.0 mph 66 % 0 in
21:06 40.1 °F 30.7 °F 30.21 in Calm   -999.0 mph 69 % 0 in
21:21 39.9 °F 30.9 °F 30.21 in Calm   -999.0 mph 70 % 0 in
21:36 39.7 °F 30.0 °F 30.21 in Calm   -999.0 mph 68 % 0 in
21:51 39.4 °F 32.5 °F 30.21 in Calm   -999.0 mph 76 % 0 in
22:22 39.0 °F 31.4 °F 30.21 in Calm   -999.0 mph 74 % 0 in
22:37 39.2 °F 31.9 °F 30.20 in Calm   -999.0 mph 75 % 0 in
22:52 39.2 °F 32.6 °F 30.20 in Calm   -999.0 mph 77 % 0 in
23:07 39.2 °F 33.9 °F 30.20 in Calm   -999.0 mph 81 % 0 in
23:22 39.4 °F 33.7 °F 30.20 in Calm   -999.0 mph 80 % 0 in
23:38 39.9 °F 33.0 °F 30.20 in Calm   -999.0 mph 76 % 0 in
23:53 40.5 °F 32.9 °F 30.20 in Calm   -999.0 mph 74 % 0 in
Big Bear CA Weather
Compliments of Weather Underground - 1.25 mb